sensor_id;sensor_type;location;lat;lon;timestamp;temperature;humidity
20370;DHT22;10344;47.592;9.600;2022-12-07T00:00:55;3.80;99.90
20370;DHT22;10344;47.592;9.600;2022-12-07T00:03:21;3.80;99.90
20370;DHT22;10344;47.592;9.600;2022-12-07T00:05:46;3.80;99.90
20370;DHT22;10344;47.592;9.600;2022-12-07T00:08:12;3.80;99.90
20370;DHT22;10344;47.592;9.600;2022-12-07T00:10:38;3.80;99.90
20370;DHT22;10344;47.592;9.600;2022-12-07T00:13:06;3.70;99.90
20370;DHT22;10344;47.592;9.600;2022-12-07T00:15:33;3.70;99.90
20370;DHT22;10344;47.592;9.600;2022-12-07T00:17:59;3.60;99.90
20370;DHT22;10344;47.592;9.600;2022-12-07T00:20:25;3.60;99.90
20370;DHT22;10344;47.592;9.600;2022-12-07T00:22:51;3.60;99.90
20370;DHT22;10344;47.592;9.600;2022-12-07T00:25:16;4.00;99.90
20370;DHT22;10344;47.592;9.600;2022-12-07T00:27:42;4.00;99.90
20370;DHT22;10344;47.592;9.600;2022-12-07T00:30:08;4.00;99.90
20370;DHT22;10344;47.592;9.600;2022-12-07T00:32:33;3.90;99.90
20370;DHT22;10344;47.592;9.600;2022-12-07T00:34:59;3.90;99.90
20370;DHT22;10344;47.592;9.600;2022-12-07T00:37:27;3.80;99.90
20370;DHT22;10344;47.592;9.600;2022-12-07T00:39:52;3.80;99.90
20370;DHT22;10344;47.592;9.600;2022-12-07T00:42:18;3.90;99.90
20370;DHT22;10344;47.592;9.600;2022-12-07T00:44:43;3.80;99.90
20370;DHT22;10344;47.592;9.600;2022-12-07T00:47:09;3.80;99.90
20370;DHT22;10344;47.592;9.600;2022-12-07T00:49:35;3.80;99.90
20370;DHT22;10344;47.592;9.600;2022-12-07T00:52:01;3.80;99.90
20370;DHT22;10344;47.592;9.600;2022-12-07T00:54:26;3.90;99.90
20370;DHT22;10344;47.592;9.600;2022-12-07T00:56:52;3.80;99.90
20370;DHT22;10344;47.592;9.600;2022-12-07T00:59:20;3.80;99.90
20370;DHT22;10344;47.592;9.600;2022-12-07T01:01:45;3.80;99.90
20370;DHT22;10344;47.592;9.600;2022-12-07T01:04:11;3.80;99.90
20370;DHT22;10344;47.592;9.600;2022-12-07T01:06:36;3.80;99.90
20370;DHT22;10344;47.592;9.600;2022-12-07T01:09:02;3.80;99.90
20370;DHT22;10344;47.592;9.600;2022-12-07T01:11:30;3.80;99.90
20370;DHT22;10344;47.592;9.600;2022-12-07T01:13:57;3.80;99.90
20370;DHT22;10344;47.592;9.600;2022-12-07T01:16:25;3.70;99.90
20370;DHT22;10344;47.592;9.600;2022-12-07T01:18:54;3.70;99.90
20370;DHT22;10344;47.592;9.600;2022-12-07T01:21:22;3.70;99.90
20370;DHT22;10344;47.592;9.600;2022-12-07T01:23:49;3.80;99.90
20370;DHT22;10344;47.592;9.600;2022-12-07T01:26:23;3.80;99.90
20370;DHT22;10344;47.592;9.600;2022-12-07T01:28:49;3.80;99.90
20370;DHT22;10344;47.592;9.600;2022-12-07T01:31:18;3.70;99.90
20370;DHT22;10344;47.592;9.600;2022-12-07T01:33:47;3.80;99.90
20370;DHT22;10344;47.592;9.600;2022-12-07T01:36:17;3.70;99.90
20370;DHT22;10344;47.592;9.600;2022-12-07T01:38:44;3.70;99.90
20370;DHT22;10344;47.592;9.600;2022-12-07T01:41:11;3.70;99.90
20370;DHT22;10344;47.592;9.600;2022-12-07T01:44:06;3.70;99.90
20370;DHT22;10344;47.592;9.600;2022-12-07T01:46:22;3.70;99.90
20370;DHT22;10344;47.592;9.600;2022-12-07T01:48:50;3.70;99.90
20370;DHT22;10344;47.592;9.600;2022-12-07T01:51:15;3.70;99.90
20370;DHT22;10344;47.592;9.600;2022-12-07T01:53:43;3.70;99.90
20370;DHT22;10344;47.592;9.600;2022-12-07T01:56:18;3.70;99.90
20370;DHT22;10344;47.592;9.600;2022-12-07T01:58:48;3.80;99.90
20370;DHT22;10344;47.592;9.600;2022-12-07T02:01:14;3.80;99.90
20370;DHT22;10344;47.592;9.600;2022-12-07T02:03:42;3.70;99.90
20370;DHT22;10344;47.592;9.600;2022-12-07T02:06:10;3.80;99.90
20370;DHT22;10344;47.592;9.600;2022-12-07T02:08:37;3.80;99.90
20370;DHT22;10344;47.592;9.600;2022-12-07T02:11:04;3.80;99.90
20370;DHT22;10344;47.592;9.600;2022-12-07T02:13:35;3.80;99.90
20370;DHT22;10344;47.592;9.600;2022-12-07T02:16:29;3.90;99.90
20370;DHT22;10344;47.592;9.600;2022-12-07T02:22:03;3.70;99.90
20370;DHT22;10344;47.592;9.600;2022-12-07T02:30:04;3.70;99.90
20370;DHT22;10344;47.592;9.600;2022-12-07T02:38:28;3.60;99.90
20370;DHT22;10344;47.592;9.600;2022-12-07T02:41:02;3.60;99.90
20370;DHT22;10344;47.592;9.600;2022-12-07T02:43:46;3.60;99.90
20370;DHT22;10344;47.592;9.600;2022-12-07T02:46:23;3.60;99.90
20370;DHT22;10344;47.592;9.600;2022-12-07T02:48:51;3.60;99.90
20370;DHT22;10344;47.592;9.600;2022-12-07T02:51:21;3.60;99.90
20370;DHT22;10344;47.592;9.600;2022-12-07T02:53:47;3.60;99.90
20370;DHT22;10344;47.592;9.600;2022-12-07T02:56:30;3.60;99.90
20370;DHT22;10344;47.592;9.600;2022-12-07T03:05:22;3.50;99.90
20370;DHT22;10344;47.592;9.600;2022-12-07T03:19:01;3.40;99.90
20370;DHT22;10344;47.592;9.600;2022-12-07T03:21:31;3.40;99.90
20370;DHT22;10344;47.592;9.600;2022-12-07T03:24:00;3.40;99.90
20370;DHT22;10344;47.592;9.600;2022-12-07T03:26:37;3.40;99.90
20370;DHT22;10344;47.592;9.600;2022-12-07T03:29:11;3.30;99.90
20370;DHT22;10344;47.592;9.600;2022-12-07T03:31:44;3.40;99.90
20370;DHT22;10344;47.592;9.600;2022-12-07T03:34:16;3.30;99.90
20370;DHT22;10344;47.592;9.600;2022-12-07T03:36:51;3.30;99.90
20370;DHT22;10344;47.592;9.600;2022-12-07T03:39:37;3.30;99.90
20370;DHT22;10344;47.592;9.600;2022-12-07T03:42:05;3.30;99.90
20370;DHT22;10344;47.592;9.600;2022-12-07T03:44:35;3.30;99.90
20370;DHT22;10344;47.592;9.600;2022-12-07T03:48:00;3.30;99.90
20370;DHT22;10344;47.592;9.600;2022-12-07T03:50:25;3.30;99.90
20370;DHT22;10344;47.592;9.600;2022-12-07T03:52:57;3.30;99.90
20370;DHT22;10344;47.592;9.600;2022-12-07T03:55:32;3.20;99.90
20370;DHT22;10344;47.592;9.600;2022-12-07T03:58:09;3.30;99.90
20370;DHT22;10344;47.592;9.600;2022-12-07T04:00:36;3.20;99.90
20370;DHT22;10344;47.592;9.600;2022-12-07T04:03:04;3.10;99.90
20370;DHT22;10344;47.592;9.600;2022-12-07T04:05:31;3.10;99.90
20370;DHT22;10344;47.592;9.600;2022-12-07T04:07:58;3.20;99.90
20370;DHT22;10344;47.592;9.600;2022-12-07T04:10:26;3.10;99.90
20370;DHT22;10344;47.592;9.600;2022-12-07T04:12:52;3.10;99.90
20370;DHT22;10344;47.592;9.600;2022-12-07T04:15:18;3.20;99.90
20370;DHT22;10344;47.592;9.600;2022-12-07T04:17:43;3.20;99.90
20370;DHT22;10344;47.592;9.600;2022-12-07T04:20:09;3.20;99.90
20370;DHT22;10344;47.592;9.600;2022-12-07T04:22:35;3.20;99.90
20370;DHT22;10344;47.592;9.600;2022-12-07T04:25:01;3.10;99.90
20370;DHT22;10344;47.592;9.600;2022-12-07T04:27:26;3.10;99.90
20370;DHT22;10344;47.592;9.600;2022-12-07T04:29:54;3.20;99.90
20370;DHT22;10344;47.592;9.600;2022-12-07T04:32:23;3.20;99.90
20370;DHT22;10344;47.592;9.600;2022-12-07T04:34:49;3.20;99.90
20370;DHT22;10344;47.592;9.600;2022-12-07T04:37:14;3.20;99.90
20370;DHT22;10344;47.592;9.600;2022-12-07T04:39:40;3.10;99.90
20370;DHT22;10344;47.592;9.600;2022-12-07T04:42:10;3.10;99.90
20370;DHT22;10344;47.592;9.600;2022-12-07T04:44:36;3.10;99.90
20370;DHT22;10344;47.592;9.600;2022-12-07T04:47:01;3.10;99.90
20370;DHT22;10344;47.592;9.600;2022-12-07T04:49:27;3.20;99.90
20370;DHT22;10344;47.592;9.600;2022-12-07T04:51:53;3.20;99.90
20370;DHT22;10344;47.592;9.600;2022-12-07T04:54:21;3.20;99.90
20370;DHT22;10344;47.592;9.600;2022-12-07T04:56:47;3.20;99.90
20370;DHT22;10344;47.592;9.600;2022-12-07T04:59:14;3.20;99.90
20370;DHT22;10344;47.592;9.600;2022-12-07T05:01:40;3.20;99.90
20370;DHT22;10344;47.592;9.600;2022-12-07T05:04:06;3.20;99.90
20370;DHT22;10344;47.592;9.600;2022-12-07T05:06:34;3.20;99.90
20370;DHT22;10344;47.592;9.600;2022-12-07T05:09:00;3.20;99.90
20370;DHT22;10344;47.592;9.600;2022-12-07T05:11:25;3.10;99.90
20370;DHT22;10344;47.592;9.600;2022-12-07T05:14:14;3.10;99.90
20370;DHT22;10344;47.592;9.600;2022-12-07T05:16:44;3.20;99.90
20370;DHT22;10344;47.592;9.600;2022-12-07T05:19:13;3.10;99.90
20370;DHT22;10344;47.592;9.600;2022-12-07T05:21:41;3.20;99.90
20370;DHT22;10344;47.592;9.600;2022-12-07T05:24:07;3.10;99.90
20370;DHT22;10344;47.592;9.600;2022-12-07T05:26:34;3.10;99.90
20370;DHT22;10344;47.592;9.600;2022-12-07T05:28:59;3.10;99.90
20370;DHT22;10344;47.592;9.600;2022-12-07T05:31:26;3.10;99.90
20370;DHT22;10344;47.592;9.600;2022-12-07T05:33:51;3.10;99.90
20370;DHT22;10344;47.592;9.600;2022-12-07T05:36:17;3.10;99.90
20370;DHT22;10344;47.592;9.600;2022-12-07T05:38:43;3.10;99.90
20370;DHT22;10344;47.592;9.600;2022-12-07T05:41:09;3.20;99.90
20370;DHT22;10344;47.592;9.600;2022-12-07T05:43:56;3.20;99.90
20370;DHT22;10344;47.592;9.600;2022-12-07T05:46:22;3.10;99.90
20370;DHT22;10344;47.592;9.600;2022-12-07T05:48:48;3.10;99.90
20370;DHT22;10344;47.592;9.600;2022-12-07T05:51:13;3.10;99.90
20370;DHT22;10344;47.592;9.600;2022-12-07T05:53:39;3.10;99.90
20370;DHT22;10344;47.592;9.600;2022-12-07T05:56:07;3.10;99.90
20370;DHT22;10344;47.592;9.600;2022-12-07T05:58:32;3.00;99.90
20370;DHT22;10344;47.592;9.600;2022-12-07T06:01:16;3.00;99.90
20370;DHT22;10344;47.592;9.600;2022-12-07T06:03:42;3.00;99.90
20370;DHT22;10344;47.592;9.600;2022-12-07T06:06:08;3.10;99.90
20370;DHT22;10344;47.592;9.600;2022-12-07T06:08:33;3.10;99.90
20370;DHT22;10344;47.592;9.600;2022-12-07T06:10:59;3.00;99.90
20370;DHT22;10344;47.592;9.600;2022-12-07T06:13:44;3.10;99.90
20370;DHT22;10344;47.592;9.600;2022-12-07T06:16:10;3.10;99.90
20370;DHT22;10344;47.592;9.600;2022-12-07T06:18:38;3.10;99.90
20370;DHT22;10344;47.592;9.600;2022-12-07T06:21:04;3.00;99.90
20370;DHT22;10344;47.592;9.600;2022-12-07T06:23:29;3.00;99.90
20370;DHT22;10344;47.592;9.600;2022-12-07T06:25:55;2.90;99.90
20370;DHT22;10344;47.592;9.600;2022-12-07T06:28:20;3.00;99.90
20370;DHT22;10344;47.592;9.600;2022-12-07T06:30:46;3.00;99.90
20370;DHT22;10344;47.592;9.600;2022-12-07T06:33:11;2.90;99.90
20370;DHT22;10344;47.592;9.600;2022-12-07T06:35:37;2.90;99.90
20370;DHT22;10344;47.592;9.600;2022-12-07T06:38:03;2.90;99.90
20370;DHT22;10344;47.592;9.600;2022-12-07T06:40:28;2.90;99.90
20370;DHT22;10344;47.592;9.600;2022-12-07T06:42:54;2.90;99.90
20370;DHT22;10344;47.592;9.600;2022-12-07T06:45:20;2.90;99.90
20370;DHT22;10344;47.592;9.600;2022-12-07T06:47:45;2.90;99.90
20370;DHT22;10344;47.592;9.600;2022-12-07T06:50:11;3.00;99.90
20370;DHT22;10344;47.592;9.600;2022-12-07T06:52:37;2.90;99.90
20370;DHT22;10344;47.592;9.600;2022-12-07T06:55:03;3.00;99.90
20370;DHT22;10344;47.592;9.600;2022-12-07T06:57:28;3.00;99.90
20370;DHT22;10344;47.592;9.600;2022-12-07T06:59:54;3.00;99.90
20370;DHT22;10344;47.592;9.600;2022-12-07T07:02:19;3.00;99.90
20370;DHT22;10344;47.592;9.600;2022-12-07T07:04:45;3.00;99.90
20370;DHT22;10344;47.592;9.600;2022-12-07T07:07:10;2.90;99.90
20370;DHT22;10344;47.592;9.600;2022-12-07T07:09:36;3.00;99.90
20370;DHT22;10344;47.592;9.600;2022-12-07T07:12:01;3.00;99.90
20370;DHT22;10344;47.592;9.600;2022-12-07T07:14:27;3.00;99.90
20370;DHT22;10344;47.592;9.600;2022-12-07T07:16:53;3.00;99.90
20370;DHT22;10344;47.592;9.600;2022-12-07T07:19:18;3.00;99.90
20370;DHT22;10344;47.592;9.600;2022-12-07T07:21:46;3.10;99.90
20370;DHT22;10344;47.592;9.600;2022-12-07T07:24:12;3.10;99.90
20370;DHT22;10344;47.592;9.600;2022-12-07T07:26:38;3.10;99.90
20370;DHT22;10344;47.592;9.600;2022-12-07T07:29:03;3.00;99.90
20370;DHT22;10344;47.592;9.600;2022-12-07T07:31:29;3.00;99.90
20370;DHT22;10344;47.592;9.600;2022-12-07T07:33:55;3.00;99.90
20370;DHT22;10344;47.592;9.600;2022-12-07T07:36:20;2.90;99.90
20370;DHT22;10344;47.592;9.600;2022-12-07T07:38:46;2.90;99.90
20370;DHT22;10344;47.592;9.600;2022-12-07T07:41:11;2.90;99.90
20370;DHT22;10344;47.592;9.600;2022-12-07T07:43:37;3.00;99.90
20370;DHT22;10344;47.592;9.600;2022-12-07T07:46:03;3.00;99.90
20370;DHT22;10344;47.592;9.600;2022-12-07T07:48:28;3.10;99.90
20370;DHT22;10344;47.592;9.600;2022-12-07T07:50:54;3.10;99.90
20370;DHT22;10344;47.592;9.600;2022-12-07T07:53:20;3.00;99.90
20370;DHT22;10344;47.592;9.600;2022-12-07T07:55:55;3.10;99.90
20370;DHT22;10344;47.592;9.600;2022-12-07T07:58:21;3.10;99.90
20370;DHT22;10344;47.592;9.600;2022-12-07T08:00:47;3.10;99.90
20370;DHT22;10344;47.592;9.600;2022-12-07T08:03:13;3.10;99.90
20370;DHT22;10344;47.592;9.600;2022-12-07T08:05:39;3.10;99.90
20370;DHT22;10344;47.592;9.600;2022-12-07T08:08:04;3.00;99.90
20370;DHT22;10344;47.592;9.600;2022-12-07T08:10:33;3.00;99.90
20370;DHT22;10344;47.592;9.600;2022-12-07T08:13:00;3.00;99.90
20370;DHT22;10344;47.592;9.600;2022-12-07T08:15:40;3.00;99.90
20370;DHT22;10344;47.592;9.600;2022-12-07T08:18:06;3.10;99.90
20370;DHT22;10344;47.592;9.600;2022-12-07T08:20:34;3.10;99.90
20370;DHT22;10344;47.592;9.600;2022-12-07T08:23:03;3.10;99.90
20370;DHT22;10344;47.592;9.600;2022-12-07T08:25:29;3.10;99.90
20370;DHT22;10344;47.592;9.600;2022-12-07T08:27:55;3.10;99.90
20370;DHT22;10344;47.592;9.600;2022-12-07T08:30:21;3.00;99.90
20370;DHT22;10344;47.592;9.600;2022-12-07T08:32:47;3.00;99.90
20370;DHT22;10344;47.592;9.600;2022-12-07T08:35:14;3.10;99.90
20370;DHT22;10344;47.592;9.600;2022-12-07T08:37:40;3.00;99.90
20370;DHT22;10344;47.592;9.600;2022-12-07T08:40:10;3.00;99.90
20370;DHT22;10344;47.592;9.600;2022-12-07T08:42:36;3.10;99.90
20370;DHT22;10344;47.592;9.600;2022-12-07T08:45:13;3.10;99.90
20370;DHT22;10344;47.592;9.600;2022-12-07T08:47:44;3.10;99.90
20370;DHT22;10344;47.592;9.600;2022-12-07T08:50:12;3.00;99.90
20370;DHT22;10344;47.592;9.600;2022-12-07T08:52:38;3.00;99.90
20370;DHT22;10344;47.592;9.600;2022-12-07T08:55:05;3.10;99.90
20370;DHT22;10344;47.592;9.600;2022-12-07T08:57:33;3.10;99.90
20370;DHT22;10344;47.592;9.600;2022-12-07T09:00:00;3.10;99.90
20370;DHT22;10344;47.592;9.600;2022-12-07T09:02:26;3.10;99.90
20370;DHT22;10344;47.592;9.600;2022-12-07T09:04:51;3.00;99.90
20370;DHT22;10344;47.592;9.600;2022-12-07T09:07:17;3.00;99.90
20370;DHT22;10344;47.592;9.600;2022-12-07T09:09:43;3.00;99.90
20370;DHT22;10344;47.592;9.600;2022-12-07T09:12:08;3.00;99.90
20370;DHT22;10344;47.592;9.600;2022-12-07T09:14:35;3.00;99.90
20370;DHT22;10344;47.592;9.600;2022-12-07T09:17:12;3.00;99.90
20370;DHT22;10344;47.592;9.600;2022-12-07T09:19:38;2.90;99.90
20370;DHT22;10344;47.592;9.600;2022-12-07T09:22:04;2.90;99.90
20370;DHT22;10344;47.592;9.600;2022-12-07T09:24:31;3.00;99.90
20370;DHT22;10344;47.592;9.600;2022-12-07T09:26:58;3.00;99.90
20370;DHT22;10344;47.592;9.600;2022-12-07T09:29:24;3.00;99.90
20370;DHT22;10344;47.592;9.600;2022-12-07T09:31:51;2.90;99.90
20370;DHT22;10344;47.592;9.600;2022-12-07T09:34:16;2.90;99.90
20370;DHT22;10344;47.592;9.600;2022-12-07T09:36:42;2.90;99.90
20370;DHT22;10344;47.592;9.600;2022-12-07T09:39:08;2.90;99.90
20370;DHT22;10344;47.592;9.600;2022-12-07T09:41:37;2.90;99.90
20370;DHT22;10344;47.592;9.600;2022-12-07T09:44:17;3.00;99.90
20370;DHT22;10344;47.592;9.600;2022-12-07T09:46:45;3.00;99.90
20370;DHT22;10344;47.592;9.600;2022-12-07T09:49:18;3.00;99.90
20370;DHT22;10344;47.592;9.600;2022-12-07T09:51:45;3.00;99.90
20370;DHT22;10344;47.592;9.600;2022-12-07T09:54:16;3.00;99.90
20370;DHT22;10344;47.592;9.600;2022-12-07T09:56:43;2.90;99.90
20370;DHT22;10344;47.592;9.600;2022-12-07T09:59:13;2.80;99.90
20370;DHT22;10344;47.592;9.600;2022-12-07T10:01:46;2.80;99.90
20370;DHT22;10344;47.592;9.600;2022-12-07T10:04:21;2.80;99.90
20370;DHT22;10344;47.592;9.600;2022-12-07T10:06:48;2.80;99.90
20370;DHT22;10344;47.592;9.600;2022-12-07T10:09:19;2.80;99.90
20370;DHT22;10344;47.592;9.600;2022-12-07T10:12:06;2.80;99.90
20370;DHT22;10344;47.592;9.600;2022-12-07T10:14:34;2.80;99.90
20370;DHT22;10344;47.592;9.600;2022-12-07T10:17:00;2.80;99.90
20370;DHT22;10344;47.592;9.600;2022-12-07T10:19:32;2.80;99.90
20370;DHT22;10344;47.592;9.600;2022-12-07T10:24:25;2.80;99.90
20370;DHT22;10344;47.592;9.600;2022-12-07T10:26:52;2.80;99.90
20370;DHT22;10344;47.592;9.600;2022-12-07T10:32:02;3.00;99.90
20370;DHT22;10344;47.592;9.600;2022-12-07T10:34:32;2.90;99.90
20370;DHT22;10344;47.592;9.600;2022-12-07T10:39:50;3.00;99.90
20370;DHT22;10344;47.592;9.600;2022-12-07T10:42:29;3.00;99.90
20370;DHT22;10344;47.592;9.600;2022-12-07T11:06:34;3.10;99.90
20370;DHT22;10344;47.592;9.600;2022-12-07T11:12:01;3.10;99.90
20370;DHT22;10344;47.592;9.600;2022-12-07T11:14:56;3.10;99.90
20370;DHT22;10344;47.592;9.600;2022-12-07T11:23:40;3.30;99.90
20370;DHT22;10344;47.592;9.600;2022-12-07T11:26:23;3.30;99.90
20370;DHT22;10344;47.592;9.600;2022-12-07T11:29:30;3.50;99.90
20370;DHT22;10344;47.592;9.600;2022-12-07T11:37:19;3.50;99.90
20370;DHT22;10344;47.592;9.600;2022-12-07T11:39:52;3.60;99.90
20370;DHT22;10344;47.592;9.600;2022-12-07T11:42:24;3.60;99.90
20370;DHT22;10344;47.592;9.600;2022-12-07T11:45:17;3.60;99.90
20370;DHT22;10344;47.592;9.600;2022-12-07T11:50:37;3.70;99.90
20370;DHT22;10344;47.592;9.600;2022-12-07T12:04:22;4.10;99.90
20370;DHT22;10344;47.592;9.600;2022-12-07T12:06:50;4.30;99.90
20370;DHT22;10344;47.592;9.600;2022-12-07T12:09:27;4.30;99.90
20370;DHT22;10344;47.592;9.600;2022-12-07T12:20:37;4.50;99.90
20370;DHT22;10344;47.592;9.600;2022-12-07T12:26:00;4.50;99.90
20370;DHT22;10344;47.592;9.600;2022-12-07T12:28:41;4.40;99.90
20370;DHT22;10344;47.592;9.600;2022-12-07T12:31:15;4.40;99.90
20370;DHT22;10344;47.592;9.600;2022-12-07T12:33:51;4.20;99.90
20370;DHT22;10344;47.592;9.600;2022-12-07T12:39:08;4.20;99.90
20370;DHT22;10344;47.592;9.600;2022-12-07T12:47:37;4.40;99.90
20370;DHT22;10344;47.592;9.600;2022-12-07T12:57:36;4.20;99.90
20370;DHT22;10344;47.592;9.600;2022-12-07T13:00:20;4.40;99.90
20370;DHT22;10344;47.592;9.600;2022-12-07T13:02:56;4.40;99.90
20370;DHT22;10344;47.592;9.600;2022-12-07T13:05:29;4.40;99.90
20370;DHT22;10344;47.592;9.600;2022-12-07T13:15:38;4.40;99.90
20370;DHT22;10344;47.592;9.600;2022-12-07T13:18:24;4.40;99.90
20370;DHT22;10344;47.592;9.600;2022-12-07T13:26:20;4.50;99.90
20370;DHT22;10344;47.592;9.600;2022-12-07T13:31:42;4.40;99.90
20370;DHT22;10344;47.592;9.600;2022-12-07T13:36:52;4.40;99.90
20370;DHT22;10344;47.592;9.600;2022-12-07T13:39:23;4.40;99.90
20370;DHT22;10344;47.592;9.600;2022-12-07T13:41:53;4.40;99.90
20370;DHT22;10344;47.592;9.600;2022-12-07T13:44:19;4.40;99.90
20370;DHT22;10344;47.592;9.600;2022-12-07T13:49:30;4.40;99.90
20370;DHT22;10344;47.592;9.600;2022-12-07T13:52:23;4.40;99.90
20370;DHT22;10344;47.592;9.600;2022-12-07T13:55:01;4.40;99.90
20370;DHT22;10344;47.592;9.600;2022-12-07T13:57:34;4.40;99.90
20370;DHT22;10344;47.592;9.600;2022-12-07T14:00:02;4.40;99.90
20370;DHT22;10344;47.592;9.600;2022-12-07T14:02:29;4.30;99.90
20370;DHT22;10344;47.592;9.600;2022-12-07T14:05:12;4.40;99.90
20370;DHT22;10344;47.592;9.600;2022-12-07T14:07:55;4.40;99.90
20370;DHT22;10344;47.592;9.600;2022-12-07T14:12:56;4.40;99.90
20370;DHT22;10344;47.592;9.600;2022-12-07T14:15:28;4.40;99.90
20370;DHT22;10344;47.592;9.600;2022-12-07T14:17:57;4.40;99.90
20370;DHT22;10344;47.592;9.600;2022-12-07T14:20:33;4.40;99.90
20370;DHT22;10344;47.592;9.600;2022-12-07T14:23:03;4.40;99.90
20370;DHT22;10344;47.592;9.600;2022-12-07T14:25:48;4.30;99.90
20370;DHT22;10344;47.592;9.600;2022-12-07T14:28:29;4.40;99.90
20370;DHT22;10344;47.592;9.600;2022-12-07T14:30:56;4.40;99.90
20370;DHT22;10344;47.592;9.600;2022-12-07T14:33:23;4.30;99.90
20370;DHT22;10344;47.592;9.600;2022-12-07T14:35:49;4.30;99.90
20370;DHT22;10344;47.592;9.600;2022-12-07T14:38:23;4.30;99.90
20370;DHT22;10344;47.592;9.600;2022-12-07T14:40:50;4.20;99.90
20370;DHT22;10344;47.592;9.600;2022-12-07T14:43:17;4.20;99.90
20370;DHT22;10344;47.592;9.600;2022-12-07T14:45:44;4.20;99.90
20370;DHT22;10344;47.592;9.600;2022-12-07T14:48:14;4.20;99.90
20370;DHT22;10344;47.592;9.600;2022-12-07T14:50:52;4.20;99.90
20370;DHT22;10344;47.592;9.600;2022-12-07T14:53:22;4.20;99.90
20370;DHT22;10344;47.592;9.600;2022-12-07T14:55:52;4.10;99.90
20370;DHT22;10344;47.592;9.600;2022-12-07T14:58:22;4.00;99.90
20370;DHT22;10344;47.592;9.600;2022-12-07T15:00:48;4.00;99.90
20370;DHT22;10344;47.592;9.600;2022-12-07T15:03:14;4.00;99.90
20370;DHT22;10344;47.592;9.600;2022-12-07T15:05:40;4.00;99.90
20370;DHT22;10344;47.592;9.600;2022-12-07T15:08:12;4.00;99.90
20370;DHT22;10344;47.592;9.600;2022-12-07T15:10:38;4.00;99.90
20370;DHT22;10344;47.592;9.600;2022-12-07T15:13:06;4.00;99.90
20370;DHT22;10344;47.592;9.600;2022-12-07T15:15:52;4.00;99.90
20370;DHT22;10344;47.592;9.600;2022-12-07T15:18:19;4.00;99.90
20370;DHT22;10344;47.592;9.600;2022-12-07T15:20:46;3.90;99.90
20370;DHT22;10344;47.592;9.600;2022-12-07T15:23:13;3.90;99.90
20370;DHT22;10344;47.592;9.600;2022-12-07T15:25:48;3.90;99.90
20370;DHT22;10344;47.592;9.600;2022-12-07T15:28:17;3.90;99.90
20370;DHT22;10344;47.592;9.600;2022-12-07T15:30:43;4.00;99.90
20370;DHT22;10344;47.592;9.600;2022-12-07T15:33:10;4.00;99.90
20370;DHT22;10344;47.592;9.600;2022-12-07T15:35:44;4.00;99.90
20370;DHT22;10344;47.592;9.600;2022-12-07T15:38:12;3.90;99.90
20370;DHT22;10344;47.592;9.600;2022-12-07T15:40:38;3.90;99.90
20370;DHT22;10344;47.592;9.600;2022-12-07T15:43:04;3.90;99.90
20370;DHT22;10344;47.592;9.600;2022-12-07T15:45:30;3.90;99.90
20370;DHT22;10344;47.592;9.600;2022-12-07T15:47:55;3.80;99.90
20370;DHT22;10344;47.592;9.600;2022-12-07T15:50:22;3.80;99.90
20370;DHT22;10344;47.592;9.600;2022-12-07T15:52:50;3.80;99.90
20370;DHT22;10344;47.592;9.600;2022-12-07T15:55:15;3.80;99.90
20370;DHT22;10344;47.592;9.600;2022-12-07T15:57:43;3.80;99.90
20370;DHT22;10344;47.592;9.600;2022-12-07T16:00:10;3.80;99.90
20370;DHT22;10344;47.592;9.600;2022-12-07T16:02:36;3.80;99.90
20370;DHT22;10344;47.592;9.600;2022-12-07T16:05:02;3.80;99.90
20370;DHT22;10344;47.592;9.600;2022-12-07T16:07:28;3.80;99.90
20370;DHT22;10344;47.592;9.600;2022-12-07T16:09:53;3.70;99.90
20370;DHT22;10344;47.592;9.600;2022-12-07T16:12:19;3.70;99.90
20370;DHT22;10344;47.592;9.600;2022-12-07T16:14:49;3.60;99.90
20370;DHT22;10344;47.592;9.600;2022-12-07T16:17:15;3.60;99.90
20370;DHT22;10344;47.592;9.600;2022-12-07T16:19:41;3.60;99.90
20370;DHT22;10344;47.592;9.600;2022-12-07T16:22:06;3.60;99.90
20370;DHT22;10344;47.592;9.600;2022-12-07T16:24:34;3.60;99.90
20370;DHT22;10344;47.592;9.600;2022-12-07T16:27:00;3.60;99.90
20370;DHT22;10344;47.592;9.600;2022-12-07T16:29:25;3.50;99.90
20370;DHT22;10344;47.592;9.600;2022-12-07T16:31:51;3.50;99.90
20370;DHT22;10344;47.592;9.600;2022-12-07T16:34:18;3.50;99.90
20370;DHT22;10344;47.592;9.600;2022-12-07T16:36:46;3.40;99.90
20370;DHT22;10344;47.592;9.600;2022-12-07T16:39:11;3.40;99.90
20370;DHT22;10344;47.592;9.600;2022-12-07T16:41:37;3.40;99.90
20370;DHT22;10344;47.592;9.600;2022-12-07T16:44:05;3.30;99.90
20370;DHT22;10344;47.592;9.600;2022-12-07T16:46:32;3.30;99.90
20370;DHT22;10344;47.592;9.600;2022-12-07T16:48:58;3.30;99.90
20370;DHT22;10344;47.592;9.600;2022-12-07T16:51:26;3.30;99.90
20370;DHT22;10344;47.592;9.600;2022-12-07T16:53:52;3.30;99.90
20370;DHT22;10344;47.592;9.600;2022-12-07T16:56:19;3.30;99.90
20370;DHT22;10344;47.592;9.600;2022-12-07T16:58:47;3.40;99.90
20370;DHT22;10344;47.592;9.600;2022-12-07T17:01:16;3.40;99.90
20370;DHT22;10344;47.592;9.600;2022-12-07T17:03:42;3.40;99.90
20370;DHT22;10344;47.592;9.600;2022-12-07T17:06:27;3.30;99.90
20370;DHT22;10344;47.592;9.600;2022-12-07T17:08:53;3.30;99.90
20370;DHT22;10344;47.592;9.600;2022-12-07T17:11:29;3.20;99.90
20370;DHT22;10344;47.592;9.600;2022-12-07T17:13:58;3.30;99.90
20370;DHT22;10344;47.592;9.600;2022-12-07T17:16:42;3.20;99.90
20370;DHT22;10344;47.592;9.600;2022-12-07T17:19:13;3.20;99.90
20370;DHT22;10344;47.592;9.600;2022-12-07T17:21:39;3.30;99.90
20370;DHT22;10344;47.592;9.600;2022-12-07T17:24:09;3.30;99.90
20370;DHT22;10344;47.592;9.600;2022-12-07T17:26:35;3.30;99.90
20370;DHT22;10344;47.592;9.600;2022-12-07T17:29:01;3.40;99.90
20370;DHT22;10344;47.592;9.600;2022-12-07T17:31:27;3.30;99.90
20370;DHT22;10344;47.592;9.600;2022-12-07T17:33:52;3.20;99.90
20370;DHT22;10344;47.592;9.600;2022-12-07T17:36:23;3.30;99.90
20370;DHT22;10344;47.592;9.600;2022-12-07T17:38:49;3.30;99.90
20370;DHT22;10344;47.592;9.600;2022-12-07T17:41:23;3.30;99.90
20370;DHT22;10344;47.592;9.600;2022-12-07T17:44:09;3.30;99.90
20370;DHT22;10344;47.592;9.600;2022-12-07T17:46:36;3.30;99.90
20370;DHT22;10344;47.592;9.600;2022-12-07T17:49:05;3.30;99.90
20370;DHT22;10344;47.592;9.600;2022-12-07T17:51:31;3.30;99.90
20370;DHT22;10344;47.592;9.600;2022-12-07T17:54:16;3.30;99.90
20370;DHT22;10344;47.592;9.600;2022-12-07T17:56:42;3.30;99.90
20370;DHT22;10344;47.592;9.600;2022-12-07T17:59:08;3.20;99.90
20370;DHT22;10344;47.592;9.600;2022-12-07T18:01:34;3.20;99.90
20370;DHT22;10344;47.592;9.600;2022-12-07T18:04:02;3.20;99.90
20370;DHT22;10344;47.592;9.600;2022-12-07T18:06:28;3.20;99.90
20370;DHT22;10344;47.592;9.600;2022-12-07T18:08:54;3.30;99.90
20370;DHT22;10344;47.592;9.600;2022-12-07T18:11:19;3.30;99.90
20370;DHT22;10344;47.592;9.600;2022-12-07T18:13:45;3.30;99.90
20370;DHT22;10344;47.592;9.600;2022-12-07T18:16:16;3.30;99.90
20370;DHT22;10344;47.592;9.600;2022-12-07T18:18:45;3.30;99.90